Groton New London Airport Groton (New London) US
ICAO: KGON
IATA: GON
Category: Medium
Scheduled Services: No

Elevation: 9 ft
TransAlt. 18000 ft.

Airport Communications:
PROVIDENCE APP/DEP:125.75
ATIS:127
CLNC DEL:119.85
CTAF:125.6
GND:121.65
ARNG OPS:126.2
BRIDGEPORT RDO:122.1
TWR:125.6

KGON Zoom In..

If you have problems with the map follow the link
https://www.worldairports.se/pages/airport.php?
ICAO=KGON

Runways:

(A) RW 05 length 5000 ft width 150 ft
ILS 111.30 / hdg 48

(B) RW 15 length 4000 ft width 100 ft
---- / hdg 149

(C) RW 23 length 5000 ft width 150 ft
---- / hdg 228

(D) RW 33 length 4000 ft width 100 ft
---- / hdg 329

Location; KGON
Day. 19 / Time. 18.56 Zulu
* Altimeter: 29.68
* Temperature: 06° c. 42.8°f.
* Wind from: 320° Speed 12 kn.
Dewpoint: -04° c.
Visibility: 10 Statute Miles.
Clouds: Broken 5500 ft.

KGON 191856Z 32012KT 10SM BKN055 06/M04 A2968 RMK AO2 SLP048 T00561039


Wind From 320°
Speed 12 kn.

 
 
jpsmedia worldairports.se 2020   terms of use